sensor_id;sensor_type;location;lat;lon;timestamp;P1;durP1;ratioP1;P2;durP2;ratioP2
51489;SDS011;57752;53.574;9.736;2023-07-30T00:01:02;14.15;;;6.93;;
51489;SDS011;57752;53.574;9.736;2023-07-30T00:06:02;15.30;;;7.38;;
51489;SDS011;57752;53.574;9.736;2023-07-30T00:11:02;12.30;;;5.82;;
51489;SDS011;57752;53.574;9.736;2023-07-30T00:16:03;15.23;;;7.10;;
51489;SDS011;57752;53.574;9.736;2023-07-30T00:21:03;14.02;;;6.78;;
51489;SDS011;57752;53.574;9.736;2023-07-30T00:26:03;17.83;;;7.55;;
51489;SDS011;57752;53.574;9.736;2023-07-30T00:31:03;16.98;;;8.38;;
51489;SDS011;57752;53.574;9.736;2023-07-30T00:36:03;15.45;;;7.85;;
51489;SDS011;57752;53.574;9.736;2023-07-30T00:41:04;12.23;;;6.03;;
51489;SDS011;57752;53.574;9.736;2023-07-30T00:46:04;14.82;;;7.63;;
51489;SDS011;57752;53.574;9.736;2023-07-30T00:51:04;17.07;;;7.90;;
51489;SDS011;57752;53.574;9.736;2023-07-30T00:56:04;15.32;;;7.78;;
51489;SDS011;57752;53.574;9.736;2023-07-30T01:01:05;16.38;;;8.15;;
51489;SDS011;57752;53.574;9.736;2023-07-30T01:06:05;16.95;;;7.88;;
51489;SDS011;57752;53.574;9.736;2023-07-30T01:11:05;14.57;;;6.50;;
51489;SDS011;57752;53.574;9.736;2023-07-30T01:16:05;15.48;;;8.20;;
51489;SDS011;57752;53.574;9.736;2023-07-30T01:21:06;14.57;;;7.97;;
51489;SDS011;57752;53.574;9.736;2023-07-30T01:26:15;17.20;;;8.65;;
51489;SDS011;57752;53.574;9.736;2023-07-30T01:31:19;17.47;;;7.67;;
51489;SDS011;57752;53.574;9.736;2023-07-30T01:36:20;15.43;;;8.32;;
51489;SDS011;57752;53.574;9.736;2023-07-30T01:41:20;16.23;;;8.33;;
51489;SDS011;57752;53.574;9.736;2023-07-30T01:46:20;15.87;;;8.07;;
51489;SDS011;57752;53.574;9.736;2023-07-30T01:51:21;19.17;;;9.85;;
51489;SDS011;57752;53.574;9.736;2023-07-30T01:56:21;19.05;;;10.65;;
51489;SDS011;57752;53.574;9.736;2023-07-30T02:01:21;20.38;;;9.90;;
51489;SDS011;57752;53.574;9.736;2023-07-30T02:06:22;14.02;;;7.40;;
51489;SDS011;57752;53.574;9.736;2023-07-30T02:11:22;16.08;;;7.93;;
51489;SDS011;57752;53.574;9.736;2023-07-30T02:16:22;19.55;;;10.20;;
51489;SDS011;57752;53.574;9.736;2023-07-30T02:21:22;23.52;;;10.07;;
51489;SDS011;57752;53.574;9.736;2023-07-30T02:26:22;19.48;;;10.18;;
51489;SDS011;57752;53.574;9.736;2023-07-30T02:31:22;19.25;;;10.50;;
51489;SDS011;57752;53.574;9.736;2023-07-30T02:36:23;27.52;;;14.13;;
51489;SDS011;57752;53.574;9.736;2023-07-30T02:41:23;26.75;;;12.95;;
51489;SDS011;57752;53.574;9.736;2023-07-30T02:46:23;20.73;;;11.95;;
51489;SDS011;57752;53.574;9.736;2023-07-30T02:51:23;27.85;;;15.23;;
51489;SDS011;57752;53.574;9.736;2023-07-30T02:56:23;29.42;;;15.75;;
51489;SDS011;57752;53.574;9.736;2023-07-30T03:01:24;25.15;;;14.13;;
51489;SDS011;57752;53.574;9.736;2023-07-30T03:06:24;27.77;;;15.93;;
51489;SDS011;57752;53.574;9.736;2023-07-30T03:11:24;31.77;;;16.35;;
51489;SDS011;57752;53.574;9.736;2023-07-30T03:16:24;29.85;;;15.13;;
51489;SDS011;57752;53.574;9.736;2023-07-30T03:21:24;37.40;;;18.17;;
51489;SDS011;57752;53.574;9.736;2023-07-30T03:26:24;37.45;;;19.33;;
51489;SDS011;57752;53.574;9.736;2023-07-30T03:31:25;31.13;;;16.63;;
51489;SDS011;57752;53.574;9.736;2023-07-30T03:36:25;29.93;;;15.20;;
51489;SDS011;57752;53.574;9.736;2023-07-30T03:41:25;26.95;;;13.88;;
51489;SDS011;57752;53.574;9.736;2023-07-30T03:46:25;32.40;;;17.27;;
51489;SDS011;57752;53.574;9.736;2023-07-30T03:51:25;33.45;;;15.93;;
51489;SDS011;57752;53.574;9.736;2023-07-30T03:56:26;31.05;;;16.80;;
51489;SDS011;57752;53.574;9.736;2023-07-30T04:01:26;25.23;;;13.18;;
51489;SDS011;57752;53.574;9.736;2023-07-30T04:06:26;27.45;;;14.68;;
51489;SDS011;57752;53.574;9.736;2023-07-30T04:11:26;31.95;;;15.75;;
51489;SDS011;57752;53.574;9.736;2023-07-30T04:16:26;31.70;;;16.08;;
51489;SDS011;57752;53.574;9.736;2023-07-30T04:21:26;27.52;;;14.27;;
51489;SDS011;57752;53.574;9.736;2023-07-30T04:26:27;23.55;;;12.38;;
51489;SDS011;57752;53.574;9.736;2023-07-30T04:31:27;26.15;;;12.50;;
51489;SDS011;57752;53.574;9.736;2023-07-30T04:36:27;24.52;;;12.60;;
51489;SDS011;57752;53.574;9.736;2023-07-30T04:41:27;33.80;;;15.07;;
51489;SDS011;57752;53.574;9.736;2023-07-30T04:46:27;32.60;;;13.95;;
51489;SDS011;57752;53.574;9.736;2023-07-30T04:51:27;26.27;;;12.60;;
51489;SDS011;57752;53.574;9.736;2023-07-30T04:56:27;30.00;;;14.30;;
51489;SDS011;57752;53.574;9.736;2023-07-30T05:01:28;29.67;;;12.48;;
51489;SDS011;57752;53.574;9.736;2023-07-30T05:06:28;26.05;;;12.95;;
51489;SDS011;57752;53.574;9.736;2023-07-30T05:11:28;27.52;;;11.57;;
51489;SDS011;57752;53.574;9.736;2023-07-30T05:16:28;20.48;;;10.13;;
51489;SDS011;57752;53.574;9.736;2023-07-30T05:21:28;22.10;;;9.82;;
51489;SDS011;57752;53.574;9.736;2023-07-30T05:26:28;23.85;;;10.30;;
51489;SDS011;57752;53.574;9.736;2023-07-30T05:31:29;18.67;;;8.60;;
51489;SDS011;57752;53.574;9.736;2023-07-30T05:36:29;16.45;;;8.38;;
51489;SDS011;57752;53.574;9.736;2023-07-30T05:41:29;15.93;;;8.10;;
51489;SDS011;57752;53.574;9.736;2023-07-30T05:46:30;21.00;;;8.45;;
51489;SDS011;57752;53.574;9.736;2023-07-30T05:51:30;14.45;;;6.53;;
51489;SDS011;57752;53.574;9.736;2023-07-30T05:56:30;18.23;;;7.65;;
51489;SDS011;57752;53.574;9.736;2023-07-30T06:01:30;16.58;;;7.47;;
51489;SDS011;57752;53.574;9.736;2023-07-30T06:06:30;22.55;;;8.38;;
51489;SDS011;57752;53.574;9.736;2023-07-30T06:11:30;19.15;;;8.18;;
51489;SDS011;57752;53.574;9.736;2023-07-30T06:16:30;21.77;;;7.80;;
51489;SDS011;57752;53.574;9.736;2023-07-30T06:21:31;19.13;;;8.38;;
51489;SDS011;57752;53.574;9.736;2023-07-30T06:26:31;21.42;;;8.68;;
51489;SDS011;57752;53.574;9.736;2023-07-30T06:31:31;21.38;;;7.95;;
51489;SDS011;57752;53.574;9.736;2023-07-30T06:36:31;18.27;;;7.30;;
51489;SDS011;57752;53.574;9.736;2023-07-30T06:41:31;20.20;;;8.00;;
51489;SDS011;57752;53.574;9.736;2023-07-30T06:46:31;24.02;;;8.07;;
51489;SDS011;57752;53.574;9.736;2023-07-30T06:51:31;25.17;;;8.15;;
51489;SDS011;57752;53.574;9.736;2023-07-30T06:56:32;23.00;;;8.80;;
51489;SDS011;57752;53.574;9.736;2023-07-30T07:01:32;26.38;;;8.77;;
51489;SDS011;57752;53.574;9.736;2023-07-30T07:06:32;26.40;;;8.70;;
51489;SDS011;57752;53.574;9.736;2023-07-30T07:11:32;25.92;;;7.72;;
51489;SDS011;57752;53.574;9.736;2023-07-30T07:16:32;23.27;;;7.47;;
51489;SDS011;57752;53.574;9.736;2023-07-30T07:21:32;21.75;;;9.18;;
51489;SDS011;57752;53.574;9.736;2023-07-30T07:26:33;17.38;;;6.05;;
51489;SDS011;57752;53.574;9.736;2023-07-30T07:31:33;24.45;;;7.82;;
51489;SDS011;57752;53.574;9.736;2023-07-30T07:36:33;25.75;;;7.90;;
51489;SDS011;57752;53.574;9.736;2023-07-30T07:41:35;19.48;;;9.13;;
51489;SDS011;57752;53.574;9.736;2023-07-30T07:46:35;24.40;;;9.07;;
51489;SDS011;57752;53.574;9.736;2023-07-30T07:51:35;20.27;;;8.52;;
51489;SDS011;57752;53.574;9.736;2023-07-30T07:56:35;26.45;;;9.73;;
51489;SDS011;57752;53.574;9.736;2023-07-30T08:01:36;29.08;;;9.13;;
51489;SDS011;57752;53.574;9.736;2023-07-30T08:06:36;26.27;;;10.98;;
51489;SDS011;57752;53.574;9.736;2023-07-30T08:11:36;30.80;;;11.57;;
51489;SDS011;57752;53.574;9.736;2023-07-30T08:16:36;24.85;;;11.38;;
51489;SDS011;57752;53.574;9.736;2023-07-30T08:21:36;23.27;;;10.23;;
51489;SDS011;57752;53.574;9.736;2023-07-30T08:26:37;27.55;;;11.15;;
51489;SDS011;57752;53.574;9.736;2023-07-30T08:31:37;21.30;;;8.18;;
51489;SDS011;57752;53.574;9.736;2023-07-30T08:36:37;20.88;;;8.70;;
51489;SDS011;57752;53.574;9.736;2023-07-30T08:41:37;20.60;;;7.80;;
51489;SDS011;57752;53.574;9.736;2023-07-30T08:46:37;18.95;;;6.97;;
51489;SDS011;57752;53.574;9.736;2023-07-30T08:51:38;16.80;;;6.00;;
51489;SDS011;57752;53.574;9.736;2023-07-30T08:56:39;19.30;;;6.43;;
51489;SDS011;57752;53.574;9.736;2023-07-30T09:01:41;16.60;;;5.77;;
51489;SDS011;57752;53.574;9.736;2023-07-30T09:06:43;17.20;;;5.57;;
51489;SDS011;57752;53.574;9.736;2023-07-30T09:11:43;16.90;;;6.50;;
51489;SDS011;57752;53.574;9.736;2023-07-30T09:16:56;17.55;;;6.15;;
51489;SDS011;57752;53.574;9.736;2023-07-30T09:21:57;16.38;;;7.40;;
51489;SDS011;57752;53.574;9.736;2023-07-30T09:26:57;19.52;;;7.65;;
51489;SDS011;57752;53.574;9.736;2023-07-30T09:32:01;21.42;;;7.97;;
51489;SDS011;57752;53.574;9.736;2023-07-30T09:37:01;23.17;;;7.70;;
51489;SDS011;57752;53.574;9.736;2023-07-30T09:42:02;21.88;;;8.23;;
51489;SDS011;57752;53.574;9.736;2023-07-30T09:47:03;18.77;;;9.15;;
51489;SDS011;57752;53.574;9.736;2023-07-30T09:52:05;18.90;;;8.23;;
51489;SDS011;57752;53.574;9.736;2023-07-30T09:57:06;21.50;;;7.32;;
51489;SDS011;57752;53.574;9.736;2023-07-30T10:02:06;14.02;;;6.38;;
51489;SDS011;57752;53.574;9.736;2023-07-30T10:07:08;20.02;;;7.05;;
51489;SDS011;57752;53.574;9.736;2023-07-30T10:12:15;17.35;;;6.40;;
51489;SDS011;57752;53.574;9.736;2023-07-30T10:17:16;15.43;;;6.72;;
51489;SDS011;57752;53.574;9.736;2023-07-30T10:27:16;17.95;;;6.20;;
51489;SDS011;57752;53.574;9.736;2023-07-30T10:32:22;15.75;;;5.68;;
51489;SDS011;57752;53.574;9.736;2023-07-30T10:37:22;17.38;;;4.75;;
51489;SDS011;57752;53.574;9.736;2023-07-30T10:42:31;13.50;;;3.70;;
51489;SDS011;57752;53.574;9.736;2023-07-30T10:47:34;14.15;;;3.60;;
51489;SDS011;57752;53.574;9.736;2023-07-30T10:52:35;14.75;;;3.95;;
51489;SDS011;57752;53.574;9.736;2023-07-30T10:57:35;14.57;;;3.97;;
51489;SDS011;57752;53.574;9.736;2023-07-30T11:02:39;17.48;;;3.70;;
51489;SDS011;57752;53.574;9.736;2023-07-30T11:07:45;14.55;;;3.30;;
51489;SDS011;57752;53.574;9.736;2023-07-30T11:12:48;10.52;;;3.00;;
51489;SDS011;57752;53.574;9.736;2023-07-30T11:17:51;20.03;;;4.17;;
51489;SDS011;57752;53.574;9.736;2023-07-30T11:22:51;14.40;;;3.97;;
51489;SDS011;57752;53.574;9.736;2023-07-30T11:27:52;15.15;;;3.72;;
51489;SDS011;57752;53.574;9.736;2023-07-30T11:32:52;12.15;;;3.47;;
51489;SDS011;57752;53.574;9.736;2023-07-30T11:37:52;13.07;;;3.70;;
51489;SDS011;57752;53.574;9.736;2023-07-30T11:42:52;16.92;;;4.03;;
51489;SDS011;57752;53.574;9.736;2023-07-30T11:47:52;16.07;;;3.87;;
51489;SDS011;57752;53.574;9.736;2023-07-30T11:52:53;15.57;;;3.83;;
51489;SDS011;57752;53.574;9.736;2023-07-30T11:57:54;13.93;;;3.72;;
51489;SDS011;57752;53.574;9.736;2023-07-30T12:03:04;12.98;;;4.40;;
51489;SDS011;57752;53.574;9.736;2023-07-30T12:08:06;13.10;;;3.53;;
51489;SDS011;57752;53.574;9.736;2023-07-30T12:13:11;11.68;;;3.70;;
51489;SDS011;57752;53.574;9.736;2023-07-30T12:18:11;16.10;;;4.50;;
51489;SDS011;57752;53.574;9.736;2023-07-30T12:23:12;12.82;;;3.65;;
51489;SDS011;57752;53.574;9.736;2023-07-30T12:28:12;14.90;;;3.93;;
51489;SDS011;57752;53.574;9.736;2023-07-30T12:33:13;12.73;;;3.75;;
51489;SDS011;57752;53.574;9.736;2023-07-30T12:38:13;18.70;;;4.18;;
51489;SDS011;57752;53.574;9.736;2023-07-30T12:43:14;13.80;;;3.83;;
51489;SDS011;57752;53.574;9.736;2023-07-30T12:48:15;14.03;;;4.13;;
51489;SDS011;57752;53.574;9.736;2023-07-30T12:53:15;14.00;;;4.82;;
51489;SDS011;57752;53.574;9.736;2023-07-30T12:58:15;15.05;;;4.05;;
51489;SDS011;57752;53.574;9.736;2023-07-30T13:03:15;18.95;;;4.38;;
51489;SDS011;57752;53.574;9.736;2023-07-30T13:08:16;15.80;;;3.75;;
51489;SDS011;57752;53.574;9.736;2023-07-30T13:13:16;13.23;;;4.75;;
51489;SDS011;57752;53.574;9.736;2023-07-30T13:18:16;15.50;;;4.47;;
51489;SDS011;57752;53.574;9.736;2023-07-30T13:23:16;13.45;;;4.20;;
51489;SDS011;57752;53.574;9.736;2023-07-30T13:28:16;12.55;;;4.22;;
51489;SDS011;57752;53.574;9.736;2023-07-30T13:33:16;13.88;;;4.45;;
51489;SDS011;57752;53.574;9.736;2023-07-30T13:38:17;12.00;;;3.67;;
51489;SDS011;57752;53.574;9.736;2023-07-30T13:43:17;13.27;;;3.50;;
51489;SDS011;57752;53.574;9.736;2023-07-30T13:48:17;12.60;;;3.60;;
51489;SDS011;57752;53.574;9.736;2023-07-30T13:53:17;14.65;;;3.47;;
51489;SDS011;57752;53.574;9.736;2023-07-30T13:58:18;11.75;;;3.25;;
51489;SDS011;57752;53.574;9.736;2023-07-30T14:03:18;9.68;;;3.30;;
51489;SDS011;57752;53.574;9.736;2023-07-30T14:08:18;11.18;;;3.42;;
51489;SDS011;57752;53.574;9.736;2023-07-30T14:13:18;10.82;;;3.00;;
51489;SDS011;57752;53.574;9.736;2023-07-30T14:18:18;10.70;;;3.13;;
51489;SDS011;57752;53.574;9.736;2023-07-30T14:23:18;11.38;;;3.35;;
51489;SDS011;57752;53.574;9.736;2023-07-30T14:28:19;11.73;;;3.05;;
51489;SDS011;57752;53.574;9.736;2023-07-30T14:33:19;13.52;;;3.28;;
51489;SDS011;57752;53.574;9.736;2023-07-30T14:38:19;11.75;;;3.30;;
51489;SDS011;57752;53.574;9.736;2023-07-30T14:43:19;11.70;;;3.40;;
51489;SDS011;57752;53.574;9.736;2023-07-30T14:48:19;15.00;;;3.05;;
51489;SDS011;57752;53.574;9.736;2023-07-30T14:53:19;14.23;;;3.38;;
51489;SDS011;57752;53.574;9.736;2023-07-30T14:58:20;11.70;;;2.90;;
51489;SDS011;57752;53.574;9.736;2023-07-30T15:03:20;10.70;;;3.10;;
51489;SDS011;57752;53.574;9.736;2023-07-30T15:08:20;11.07;;;2.80;;
51489;SDS011;57752;53.574;9.736;2023-07-30T15:13:20;11.38;;;2.90;;
51489;SDS011;57752;53.574;9.736;2023-07-30T15:18:22;10.47;;;2.93;;
51489;SDS011;57752;53.574;9.736;2023-07-30T15:23:22;13.00;;;3.22;;
51489;SDS011;57752;53.574;9.736;2023-07-30T15:28:22;10.98;;;2.92;;
51489;SDS011;57752;53.574;9.736;2023-07-30T15:33:23;11.55;;;3.00;;
51489;SDS011;57752;53.574;9.736;2023-07-30T15:38:23;16.17;;;3.67;;
51489;SDS011;57752;53.574;9.736;2023-07-30T15:43:23;12.65;;;3.22;;
51489;SDS011;57752;53.574;9.736;2023-07-30T15:48:23;14.23;;;3.65;;
51489;SDS011;57752;53.574;9.736;2023-07-30T15:53:23;11.82;;;3.22;;
51489;SDS011;57752;53.574;9.736;2023-07-30T15:58:23;12.98;;;2.92;;
51489;SDS011;57752;53.574;9.736;2023-07-30T16:03:24;12.00;;;2.95;;
51489;SDS011;57752;53.574;9.736;2023-07-30T16:08:24;10.63;;;2.70;;
51489;SDS011;57752;53.574;9.736;2023-07-30T16:13:24;10.38;;;2.60;;
51489;SDS011;57752;53.574;9.736;2023-07-30T16:18:24;11.55;;;3.08;;
51489;SDS011;57752;53.574;9.736;2023-07-30T16:23:25;10.88;;;2.75;;
51489;SDS011;57752;53.574;9.736;2023-07-30T16:28:25;12.90;;;2.90;;
51489;SDS011;57752;53.574;9.736;2023-07-30T16:33:25;10.60;;;3.03;;
51489;SDS011;57752;53.574;9.736;2023-07-30T16:38:25;10.07;;;2.97;;
51489;SDS011;57752;53.574;9.736;2023-07-30T16:43:25;10.18;;;2.80;;
51489;SDS011;57752;53.574;9.736;2023-07-30T16:48:25;10.95;;;3.05;;
51489;SDS011;57752;53.574;9.736;2023-07-30T16:53:26;11.38;;;2.97;;
51489;SDS011;57752;53.574;9.736;2023-07-30T16:58:26;9.60;;;2.67;;
51489;SDS011;57752;53.574;9.736;2023-07-30T17:03:26;12.35;;;2.80;;
51489;SDS011;57752;53.574;9.736;2023-07-30T17:08:26;12.25;;;3.00;;
51489;SDS011;57752;53.574;9.736;2023-07-30T17:13:26;12.43;;;3.10;;
51489;SDS011;57752;53.574;9.736;2023-07-30T17:18:26;9.43;;;2.75;;
51489;SDS011;57752;53.574;9.736;2023-07-30T17:23:27;10.70;;;2.95;;
51489;SDS011;57752;53.574;9.736;2023-07-30T17:28:27;9.60;;;2.70;;
51489;SDS011;57752;53.574;9.736;2023-07-30T17:33:28;11.73;;;2.60;;
51489;SDS011;57752;53.574;9.736;2023-07-30T17:38:28;10.95;;;3.05;;
51489;SDS011;57752;53.574;9.736;2023-07-30T17:43:29;11.55;;;3.42;;
51489;SDS011;57752;53.574;9.736;2023-07-30T17:48:29;9.43;;;2.87;;
51489;SDS011;57752;53.574;9.736;2023-07-30T17:53:29;12.15;;;3.00;;
51489;SDS011;57752;53.574;9.736;2023-07-30T17:58:29;9.35;;;2.60;;
51489;SDS011;57752;53.574;9.736;2023-07-30T18:03:30;11.90;;;2.60;;
51489;SDS011;57752;53.574;9.736;2023-07-30T18:08:30;11.73;;;3.05;;
51489;SDS011;57752;53.574;9.736;2023-07-30T18:13:32;10.25;;;2.65;;
51489;SDS011;57752;53.574;9.736;2023-07-30T18:18:32;9.83;;;2.73;;
51489;SDS011;57752;53.574;9.736;2023-07-30T18:23:32;13.32;;;2.95;;
51489;SDS011;57752;53.574;9.736;2023-07-30T18:28:32;8.93;;;2.63;;
51489;SDS011;57752;53.574;9.736;2023-07-30T18:33:32;13.02;;;3.20;;
51489;SDS011;57752;53.574;9.736;2023-07-30T18:38:33;8.75;;;3.15;;
51489;SDS011;57752;53.574;9.736;2023-07-30T18:43:33;13.52;;;3.15;;
51489;SDS011;57752;53.574;9.736;2023-07-30T18:48:33;13.10;;;3.20;;
51489;SDS011;57752;53.574;9.736;2023-07-30T18:53:33;9.57;;;3.03;;
51489;SDS011;57752;53.574;9.736;2023-07-30T18:58:33;12.98;;;3.03;;
51489;SDS011;57752;53.574;9.736;2023-07-30T19:03:34;11.35;;;2.90;;
51489;SDS011;57752;53.574;9.736;2023-07-30T19:08:34;8.00;;;2.65;;
51489;SDS011;57752;53.574;9.736;2023-07-30T19:13:34;9.38;;;2.88;;
51489;SDS011;57752;53.574;9.736;2023-07-30T19:18:34;9.68;;;2.90;;
51489;SDS011;57752;53.574;9.736;2023-07-30T19:23:38;11.50;;;3.15;;
51489;SDS011;57752;53.574;9.736;2023-07-30T19:28:38;10.07;;;2.97;;
51489;SDS011;57752;53.574;9.736;2023-07-30T19:33:39;12.93;;;2.85;;
51489;SDS011;57752;53.574;9.736;2023-07-30T19:38:41;9.88;;;2.90;;
51489;SDS011;57752;53.574;9.736;2023-07-30T19:43:41;8.90;;;2.83;;
51489;SDS011;57752;53.574;9.736;2023-07-30T19:48:41;9.10;;;2.80;;
51489;SDS011;57752;53.574;9.736;2023-07-30T19:53:41;9.43;;;2.65;;
51489;SDS011;57752;53.574;9.736;2023-07-30T19:58:42;9.75;;;3.00;;
51489;SDS011;57752;53.574;9.736;2023-07-30T20:03:42;9.90;;;2.83;;
51489;SDS011;57752;53.574;9.736;2023-07-30T20:08:42;12.25;;;3.05;;
51489;SDS011;57752;53.574;9.736;2023-07-30T20:13:43;11.80;;;3.20;;
51489;SDS011;57752;53.574;9.736;2023-07-30T20:18:43;11.35;;;3.33;;
51489;SDS011;57752;53.574;9.736;2023-07-30T20:23:43;11.15;;;2.83;;
51489;SDS011;57752;53.574;9.736;2023-07-30T20:28:47;9.47;;;2.80;;
51489;SDS011;57752;53.574;9.736;2023-07-30T20:33:48;9.43;;;2.67;;
51489;SDS011;57752;53.574;9.736;2023-07-30T20:38:48;10.38;;;2.63;;
51489;SDS011;57752;53.574;9.736;2023-07-30T20:43:49;11.40;;;2.90;;
51489;SDS011;57752;53.574;9.736;2023-07-30T20:48:49;10.23;;;3.75;;
51489;SDS011;57752;53.574;9.736;2023-07-30T20:53:49;10.38;;;3.13;;
51489;SDS011;57752;53.574;9.736;2023-07-30T20:58:49;9.70;;;3.40;;
51489;SDS011;57752;53.574;9.736;2023-07-30T21:03:49;12.13;;;3.63;;
51489;SDS011;57752;53.574;9.736;2023-07-30T21:08:49;12.40;;;4.15;;
51489;SDS011;57752;53.574;9.736;2023-07-30T21:13:49;11.80;;;3.50;;
51489;SDS011;57752;53.574;9.736;2023-07-30T21:18:50;11.63;;;3.47;;
51489;SDS011;57752;53.574;9.736;2023-07-30T21:23:50;9.82;;;3.20;;
51489;SDS011;57752;53.574;9.736;2023-07-30T21:28:50;11.40;;;3.13;;
51489;SDS011;57752;53.574;9.736;2023-07-30T21:33:51;10.48;;;3.22;;
51489;SDS011;57752;53.574;9.736;2023-07-30T21:38:51;12.27;;;3.45;;
51489;SDS011;57752;53.574;9.736;2023-07-30T21:43:51;10.55;;;3.28;;
51489;SDS011;57752;53.574;9.736;2023-07-30T21:48:52;11.43;;;3.22;;
51489;SDS011;57752;53.574;9.736;2023-07-30T21:53:52;13.82;;;3.58;;
51489;SDS011;57752;53.574;9.736;2023-07-30T21:58:52;15.10;;;3.08;;
51489;SDS011;57752;53.574;9.736;2023-07-30T22:03:52;12.88;;;3.33;;
51489;SDS011;57752;53.574;9.736;2023-07-30T22:08:53;12.80;;;3.88;;
51489;SDS011;57752;53.574;9.736;2023-07-30T22:13:53;12.13;;;3.63;;
51489;SDS011;57752;53.574;9.736;2023-07-30T22:18:53;12.20;;;3.63;;
51489;SDS011;57752;53.574;9.736;2023-07-30T22:23:53;14.93;;;4.32;;
51489;SDS011;57752;53.574;9.736;2023-07-30T22:28:53;12.48;;;3.78;;
51489;SDS011;57752;53.574;9.736;2023-07-30T22:33:53;12.98;;;3.90;;
51489;SDS011;57752;53.574;9.736;2023-07-30T22:38:54;13.88;;;4.38;;
51489;SDS011;57752;53.574;9.736;2023-07-30T22:43:54;11.38;;;3.75;;
51489;SDS011;57752;53.574;9.736;2023-07-30T22:48:56;12.70;;;4.87;;
51489;SDS011;57752;53.574;9.736;2023-07-30T22:53:56;15.02;;;4.90;;
51489;SDS011;57752;53.574;9.736;2023-07-30T22:58:56;13.93;;;4.93;;
51489;SDS011;57752;53.574;9.736;2023-07-30T23:03:56;14.63;;;4.95;;
51489;SDS011;57752;53.574;9.736;2023-07-30T23:08:56;11.13;;;4.57;;
51489;SDS011;57752;53.574;9.736;2023-07-30T23:13:57;12.27;;;4.53;;
51489;SDS011;57752;53.574;9.736;2023-07-30T23:18:57;14.38;;;5.20;;
51489;SDS011;57752;53.574;9.736;2023-07-30T23:23:57;12.98;;;5.07;;
51489;SDS011;57752;53.574;9.736;2023-07-30T23:28:57;13.63;;;4.15;;
51489;SDS011;57752;53.574;9.736;2023-07-30T23:33:57;18.63;;;5.47;;
51489;SDS011;57752;53.574;9.736;2023-07-30T23:38:58;17.08;;;4.70;;
51489;SDS011;57752;53.574;9.736;2023-07-30T23:43:58;13.73;;;5.13;;
51489;SDS011;57752;53.574;9.736;2023-07-30T23:48:58;13.90;;;5.45;;
51489;SDS011;57752;53.574;9.736;2023-07-30T23:53:58;14.13;;;4.82;;
51489;SDS011;57752;53.574;9.736;2023-07-30T23:58:58;17.45;;;5.47;;
